createdAt,value
2022-12-25T00:04:40.604Z,8.29
2022-12-25T00:14:43.743Z,8.33
2022-12-25T00:24:49.895Z,8.29
2022-12-25T00:34:53.060Z,8.36
2022-12-25T00:44:57.537Z,8.29
2022-12-25T00:55:00.711Z,7.88
2022-12-25T01:05:06.660Z,8.01
2022-12-25T01:15:11.324Z,7.86
2022-12-25T01:25:15.837Z,7.97
2022-12-25T01:35:19.142Z,7.65
2022-12-25T01:45:45.218Z,7.94
2022-12-25T01:55:51.208Z,7.82
2022-12-25T02:05:56.221Z,7.72
2022-12-25T02:16:04.327Z,7.69
2022-12-25T02:26:17.162Z,7.49
2022-12-25T02:36:24.684Z,7.73
2022-12-25T02:46:46.447Z,7.78
2022-12-25T02:57:09.651Z,7.56
2022-12-25T03:07:14.583Z,7.54
2022-12-25T03:17:19.181Z,7.58
2022-12-25T03:27:22.306Z,7.52
2022-12-25T03:37:52.330Z,7.58
2022-12-25T03:48:22.735Z,7.23
2022-12-25T03:58:46.510Z,7.31
2022-12-25T04:09:06.988Z,7.03
2022-12-25T04:19:35.728Z,7.03
2022-12-25T04:29:56.294Z,6.77
2022-12-25T04:40:00.837Z,6.57
2022-12-25T04:50:04.031Z,6.74
2022-12-25T05:00:10.143Z,6.42
2022-12-25T05:10:13.264Z,6.60
2022-12-25T05:20:17.845Z,6.46
2022-12-25T05:30:21.053Z,5.24
2022-12-25T05:40:25.598Z,5.54
2022-12-25T05:50:28.905Z,5.74
2022-12-25T06:00:33.616Z,5.74
2022-12-25T06:10:37.375Z,5.63
2022-12-25T06:20:42.760Z,5.61
2022-12-25T06:30:45.842Z,5.52
2022-12-25T06:40:50.368Z,5.29
2022-12-25T06:50:53.497Z,5.31
2022-12-25T07:00:59.362Z,5.07
2022-12-25T07:11:02.674Z,5.26
2022-12-25T07:21:13.131Z,5.43
2022-12-25T07:31:17.735Z,5.74
2022-12-25T07:41:22.393Z,6.15
2022-12-25T07:51:25.508Z,6.41
2022-12-25T08:01:30.589Z,6.70
2022-12-25T08:11:33.968Z,6.99
2022-12-25T08:21:38.569Z,7.22
2022-12-25T08:31:46.506Z,7.94
2022-12-25T08:41:51.218Z,8.72
2022-12-25T08:51:54.392Z,8.77
2022-12-25T09:01:59.020Z,9.72
2022-12-25T09:12:02.157Z,9.72
2022-12-25T09:22:06.678Z,10.24
2022-12-25T09:32:10.169Z,10.68
2022-12-25T09:42:17.359Z,10.94
2022-12-25T09:52:23.659Z,11.16
2022-12-25T10:03:06.662Z,11.28
2022-12-25T10:13:22.589Z,11.55
2022-12-25T10:23:28.515Z,11.71
2022-12-25T10:33:32.998Z,11.79
2022-12-25T10:43:40.123Z,11.57
2022-12-25T10:53:44.878Z,12.07
2022-12-25T11:03:52.674Z,12.03
2022-12-25T11:13:59.055Z,12.66
2022-12-25T11:24:03.646Z,12.85
2022-12-25T11:34:11.744Z,12.98
2022-12-25T11:44:26.604Z,13.05
2022-12-25T11:54:34.614Z,13.14
2022-12-25T12:04:43.098Z,13.64
2022-12-25T12:14:54.998Z,13.29
2022-12-25T12:25:02.249Z,13.55
2022-12-25T12:35:18.413Z,13.94
2022-12-25T12:45:26.621Z,13.68
2022-12-25T12:55:33.237Z,14.17
2022-12-25T13:05:40.408Z,14.26
2022-12-25T13:15:47.734Z,14.34
2022-12-25T13:25:53.545Z,14.25
2022-12-25T13:35:58.061Z,14.18
2022-12-25T13:46:01.155Z,14.11
2022-12-25T13:56:06.041Z,14.00
2022-12-25T14:06:19.095Z,13.84
2022-12-25T14:16:24.204Z,13.67
2022-12-25T14:26:29.736Z,13.45
2022-12-25T14:36:34.750Z,13.18
2022-12-25T14:46:37.922Z,12.91
2022-12-25T14:56:48.021Z,12.58
2022-12-25T15:06:56.588Z,12.52
2022-12-25T15:17:02.161Z,12.51
2022-12-25T15:27:05.481Z,12.34
2022-12-25T15:37:09.963Z,12.35
2022-12-25T15:47:13.909Z,12.39
2022-12-25T15:57:20.664Z,12.42
2022-12-25T16:07:25.062Z,12.51
2022-12-25T16:17:29.788Z,12.65
2022-12-25T16:27:32.860Z,12.88
2022-12-25T16:37:37.526Z,12.88
2022-12-25T16:47:41.150Z,13.05
2022-12-25T16:57:47.750Z,12.94
2022-12-25T17:07:51.153Z,12.81
2022-12-25T17:17:55.820Z,12.75
2022-12-25T17:27:59.037Z,12.70
2022-12-25T17:38:03.494Z,12.56
2022-12-25T17:48:06.711Z,12.38
2022-12-25T17:58:11.331Z,12.28
2022-12-25T18:08:14.662Z,12.16
2022-12-25T18:18:19.168Z,11.98
2022-12-25T18:28:22.307Z,11.89
2022-12-25T18:38:27.070Z,11.75
2022-12-25T18:48:30.791Z,11.64
2022-12-25T18:58:35.659Z,11.22
2022-12-25T19:08:38.780Z,11.16
2022-12-25T19:18:43.651Z,11.14
2022-12-25T19:28:46.796Z,11.14
2022-12-25T19:38:51.342Z,10.95
2022-12-25T19:48:55.768Z,10.86
2022-12-25T19:59:00.588Z,10.85
2022-12-25T20:09:06.255Z,10.88
2022-12-25T20:19:11.377Z,10.91
2022-12-25T20:29:14.660Z,10.85
2022-12-25T20:39:19.163Z,10.94
2022-12-25T20:49:22.360Z,11.04
2022-12-25T20:59:29.765Z,10.79
2022-12-25T21:09:36.640Z,11.05
2022-12-25T21:19:41.080Z,10.29
2022-12-25T21:29:44.171Z,11.02
2022-12-25T21:39:50.146Z,11.10
2022-12-25T21:50:10.436Z,10.71
2022-12-25T22:00:15.692Z,10.96
2022-12-25T22:10:18.775Z,11.12
2022-12-25T22:20:25.395Z,11.12
2022-12-25T22:30:30.219Z,11.05
2022-12-25T22:40:34.659Z,11.07
2022-12-25T22:50:37.716Z,10.85
2022-12-25T23:00:46.473Z,10.97
2022-12-25T23:10:49.773Z,10.76
2022-12-25T23:21:11.871Z,10.75
2022-12-25T23:31:14.777Z,10.93
2022-12-25T23:41:19.309Z,10.84
2022-12-25T23:51:22.533Z,10.77
